Time;durP1;ratioP1;P1;durP2;ratioP2;P2;SDS_P1;SDS_P2;PMS_P1;PMS_P2;Temp;Humidity;BMP_temperature;BMP_pressure;BME280_temperature;BME280_humidity;BME280_pressure;Samples;Min_cycle;Max_cycle;Signal;HPM_P1;HPM_P2
2021/09/03 00:01:46;;;;;;;9.63;6.28;;;12.80;99.90;;;11.30;95.29;101932.22;2567959;30;137676;-41
2021/09/03 00:04:14;;;;;;;9.30;6.55;;;12.80;99.90;;;11.29;95.47;101930.53;2568686;30;137690;-43
2021/09/03 00:06:43;;;;;;;11.52;6.07;;;12.80;99.90;;;11.25;95.24;101929.22;2567349;30;138205;-41
2021/09/03 00:09:10;;;;;;;8.27;5.85;;;12.80;99.90;;;11.26;95.08;101932.78;2566499;30;137042;-41
2021/09/03 00:11:38;;;;;;;8.93;5.90;;;12.80;99.90;;;11.21;95.33;101931.47;2568368;30;137210;-41
2021/09/03 00:14:06;;;;;;;12.02;5.80;;;12.70;99.90;;;11.18;95.47;101931.03;2568741;30;136988;-42
2021/09/03 00:16:37;;;;;;;10.30;6.13;;;12.70;99.90;;;11.15;95.42;101925.94;2567720;30;137292;-42
2021/09/03 00:19:06;;;;;;;10.23;6.15;;;12.60;99.90;;;11.10;95.47;101928.38;2567160;30;137397;-41
2021/09/03 00:21:34;;;;;;;8.70;5.65;;;12.60;99.90;;;11.06;95.65;101923.28;2568664;30;138396;-42
2021/09/03 00:24:01;;;;;;;;;;;12.50;99.90;;;11.02;95.81;101921.97;2568241;30;137686;-41
2021/09/03 00:26:29;;;;;;;11.10;6.18;;;12.50;99.90;;;10.97;95.92;101924.44;2568115;30;139138;-41
2021/09/03 00:28:57;;;;;;;9.32;5.80;;;12.50;99.90;;;10.94;95.80;101919.34;2567891;30;136886;-41
2021/09/03 00:31:24;;;;;;;9.40;5.78;;;12.50;99.90;;;10.93;95.97;101917.66;2567797;30;139108;-42
2021/09/03 00:33:52;;;;;;;12.25;6.20;;;12.40;99.90;;;10.88;96.13;101918.22;2566938;30;137265;-41
2021/09/03 00:36:19;;;;;;;9.10;6.15;;;12.40;99.90;;;10.85;96.00;101915.00;2568413;30;138209;-41
2021/09/03 00:39:26;;;;;;;12.82;6.72;;;12.40;99.90;;;10.78;95.87;101902.13;2569597;30;137943;-39
2021/09/03 00:41:54;;;;;;;10.48;6.70;;;12.30;99.90;;;10.82;95.98;101912.66;2567940;30;138512;-39
2021/09/03 00:44:21;;;;;;;11.07;6.53;;;12.30;99.90;;;10.82;96.14;101920.84;2568975;30;138256;-40
2021/09/03 00:46:50;;;;;;;8.65;5.97;;;12.30;99.90;;;10.76;96.15;101909.66;2570041;30;139288;-40
2021/09/03 00:49:18;;;;;;;9.52;6.47;;;12.30;99.90;;;10.82;96.79;101916.25;2568918;30;139709;-39
2021/09/03 00:51:47;;;;;;;11.98;7.10;;;12.30;99.90;;;10.75;96.69;101916.13;2568447;30;137748;-39
2021/09/03 00:54:15;;;;;;;10.13;6.72;;;12.30;99.90;;;10.76;96.68;101915.09;2569871;30;137411;-39
2021/09/03 00:56:45;;;;;;;14.02;6.47;;;12.30;99.90;;;10.74;96.32;101902.66;2567061;30;138406;-39
2021/09/03 00:59:12;;;;;;;11.20;6.47;;;12.30;99.90;;;10.72;96.17;101905.59;2568759;30;138286;-39
2021/09/03 01:01:40;;;;;;;10.07;6.88;;;12.30;99.90;;;10.71;96.17;101903.03;2569164;30;137809;-39
2021/09/03 01:04:08;;;;;;;10.27;6.65;;;12.20;99.90;;;10.70;96.30;101904.06;2569123;30;137415;-39
2021/09/03 01:06:35;;;;;;;11.48;6.55;;;12.20;99.90;;;10.68;96.50;101909.75;2565399;30;137529;-39
2021/09/03 01:09:03;;;;;;;10.13;6.45;;;12.20;99.90;;;10.67;96.44;101904.44;2571433;30;137374;-39
2021/09/03 01:11:30;;;;;;;13.52;7.15;;;12.20;99.90;;;10.65;96.92;101908.22;2569662;30;138205;-39
2021/09/03 01:13:58;;;;;;;11.75;7.20;;;12.20;99.90;;;10.64;97.04;101902.97;2568377;30;137504;-39
2021/09/03 01:16:25;;;;;;;10.18;6.40;;;12.20;99.90;;;10.59;97.12;101908.09;2567673;30;137413;-39
2021/09/03 01:18:53;;;;;;;9.90;6.07;;;12.10;99.90;;;10.55;97.05;101893.16;2566249;30;138374;-40
2021/09/03 01:21:21;;;;;;;;;;;12.10;99.90;;;10.54;96.81;101894.19;2568494;30;137438;-39
2021/09/03 01:23:48;;;;;;;14.55;7.68;;;12.10;99.90;;;10.51;97.00;101892.69;2570524;30;136965;-39
2021/09/03 01:26:16;;;;;;;14.00;7.53;;;12.00;99.90;;;10.48;96.74;101891.16;2569588;30;138776;-39
2021/09/03 01:28:46;;;;;;;;;;;12.00;99.90;;;10.47;96.93;101894.06;2570314;30;137287;-40
2021/09/03 01:31:14;;;;;;;10.35;6.22;;;12.00;99.90;;;10.46;96.72;101893.25;2567952;30;138585;-39
2021/09/03 01:33:41;;;;;;;9.68;6.20;;;12.00;99.90;;;10.45;96.72;101886.09;2568644;30;137098;-39
2021/09/03 01:36:09;;;;;;;10.75;6.95;;;12.00;99.90;;;10.45;96.70;101894.28;2568109;30;138435;-39
2021/09/03 01:38:37;;;;;;;11.43;7.13;;;12.00;99.90;;;10.44;97.15;101881.66;2568117;30;137808;-39
2021/09/03 01:41:04;;;;;;;;;;;12.00;99.90;;;10.42;97.01;101885.59;2567249;30;138262;-40
2021/09/03 01:43:32;;;;;;;12.27;6.65;;;12.00;99.90;;;10.38;96.81;101885.13;2569481;30;136906;-39
2021/09/03 01:45:59;;;;;;;12.23;6.43;;;11.90;99.90;;;10.36;96.92;101888.00;2569255;30;138186;-39
2021/09/03 01:48:27;;;;;;;11.70;5.85;;;11.90;99.90;;;10.34;97.07;101881.03;2568250;30;137034;-40
2021/09/03 01:50:54;;;;;;;7.78;4.97;;;11.90;99.90;;;10.30;97.23;101879.72;2567442;30;139368;-39
2021/09/03 01:53:22;;;;;;;7.22;4.88;;;11.90;99.90;;;10.31;97.28;101879.53;2570358;30;137128;-39
2021/09/03 01:55:49;;;;;;;8.77;5.03;;;11.90;99.90;;;10.34;97.57;101870.13;2569634;30;139241;-39
2021/09/03 01:58:17;;;;;;;8.52;4.93;;;11.90;99.90;;;10.34;97.62;101864.66;2569423;30;136693;-39
2021/09/03 02:00:44;;;;;;;7.55;4.70;;;11.90;99.90;;;10.34;97.56;101875.56;2570744;30;137371;-39
2021/09/03 02:03:14;;;;;;;7.72;5.00;;;11.90;99.90;;;10.32;97.45;101864.00;2568441;30;137018;-39
2021/09/03 02:05:42;;;;;;;8.40;5.20;;;11.90;99.90;;;10.30;97.35;101864.22;2567548;30;137708;-40
2021/09/03 02:08:10;;;;;;;;;;;11.80;99.90;;;10.29;97.50;101861.66;2570279;30;137546;-39
2021/09/03 02:10:37;;;;;;;8.23;5.10;;;11.80;99.90;;;10.26;97.37;101868.34;2568613;30;139405;-39
2021/09/03 02:13:05;;;;;;;8.15;5.55;;;11.80;99.90;;;10.25;97.31;101860.34;2568571;30;137661;-40
2021/09/03 02:15:32;;;;;;;9.80;5.90;;;11.80;99.90;;;10.19;97.38;101857.31;2568885;30;137475;-39
2021/09/03 02:18:00;;;;;;;8.82;5.57;;;11.80;99.90;;;10.20;97.14;101859.00;2569992;30;136984;-39
2021/09/03 02:20:27;;;;;;;9.93;5.93;;;11.70;99.90;;;10.19;97.44;101860.03;2569655;30;138275;-39
2021/09/03 02:22:55;;;;;;;8.93;6.43;;;11.70;99.90;;;10.17;97.35;101859.38;2568477;30;137160;-39
2021/09/03 02:25:22;;;;;;;11.13;5.70;;;11.70;99.90;;;10.17;97.57;101853.06;2569225;30;138109;-39
2021/09/03 02:27:50;;;;;;;10.02;6.35;;;11.70;99.90;;;10.17;97.93;101855.78;2568367;30;137435;-39
2021/09/03 02:30:17;;;;;;;10.48;6.43;;;11.70;99.90;;;10.18;98.38;101854.75;2569347;30;137691;-39
2021/09/03 02:32:44;;;;;;;10.65;6.43;;;11.70;99.90;;;10.17;98.36;101856.66;2570596;30;137423;-39
2021/09/03 02:35:12;;;;;;;9.75;6.40;;;11.70;99.90;;;10.17;98.16;101853.06;2569396;30;138261;-40
2021/09/03 02:37:39;;;;;;;9.32;6.25;;;11.70;99.90;;;10.16;98.39;101852.25;2566824;30;137573;-39
2021/09/03 02:40:07;;;;;;;10.15;6.43;;;11.70;99.90;;;10.14;98.56;101845.25;2570205;30;138432;-40
2021/09/03 02:42:35;;;;;;;11.23;6.80;;;11.70;99.90;;;10.12;98.55;101856.38;2569695;30;137805;-39
2021/09/03 02:45:05;;;;;;;9.25;6.00;;;11.70;99.90;;;10.05;98.55;101845.34;2568155;30;138686;-39
2021/09/03 02:47:34;;;;;;;10.77;6.57;;;11.60;99.90;;;10.00;98.28;101845.06;2568213;30;138903;-41
2021/09/03 02:50:04;;;;;;;9.70;6.20;;;11.60;99.90;;;9.97;97.85;101841.84;2567402;30;139172;-39
2021/09/03 02:52:32;;;;;;;9.57;5.50;;;11.60;99.90;;;9.95;97.90;101842.03;2570128;30;137951;-39
2021/09/03 02:55:00;;;;;;;12.68;6.68;;;11.50;99.90;;;9.93;97.45;101839.47;2567921;30;137441;-39
2021/09/03 02:57:28;;;;;;;10.75;6.60;;;11.50;99.90;;;9.90;97.53;101839.84;2569664;30;137405;-39
2021/09/03 02:59:55;;;;;;;8.02;5.38;;;11.50;99.90;;;9.88;97.78;101838.31;2570508;30;137135;-39
2021/09/03 03:02:23;;;;;;;8.90;5.47;;;11.40;99.90;;;9.85;97.75;101839.56;2568560;30;136764;-40
2021/09/03 03:04:50;;;;;;;10.18;5.60;;;11.40;99.90;;;9.81;97.84;101840.09;2570214;30;138070;-39
2021/09/03 03:07:18;;;;;;;10.43;5.72;;;11.30;99.90;;;9.77;97.87;101831.44;2569198;30;137692;-39
2021/09/03 03:09:45;;;;;;;9.57;5.97;;;11.40;99.90;;;9.74;98.01;101831.78;2567923;30;138412;-39
2021/09/03 03:12:14;;;;;;;11.75;6.18;;;11.30;99.90;;;9.69;97.97;101824.19;2568029;30;138243;-40
2021/09/03 03:14:42;;;;;;;10.25;5.72;;;11.30;99.90;;;9.68;98.17;101830.66;2567693;30;138166;-39
2021/09/03 03:17:09;;;;;;;9.65;5.55;;;11.20;99.90;;;9.66;98.17;101827.25;2567255;30;137287;-39
2021/09/03 03:19:37;;;;;;;9.38;5.80;;;11.20;99.90;;;9.66;98.73;101820.97;2569897;30;137284;-39
2021/09/03 03:22:05;;;;;;;10.30;5.95;;;11.20;99.90;;;9.64;98.47;101821.13;2571042;30;137055;-40
2021/09/03 03:24:32;;;;;;;9.05;5.47;;;11.20;99.90;;;9.63;98.67;101816.72;2569347;30;137415;-39
2021/09/03 03:27:00;;;;;;;10.43;5.85;;;11.20;99.90;;;9.60;98.71;101820.69;2568860;30;136587;-39
2021/09/03 03:29:27;;;;;;;10.45;5.93;;;11.20;99.90;;;9.58;98.39;101811.84;2569788;30;138396;-39
2021/09/03 03:31:54;;;;;;;10.05;6.00;;;11.20;99.90;;;9.58;98.46;101810.97;2569763;30;137068;-39
2021/09/03 03:34:22;;;;;;;7.85;5.43;;;11.20;99.90;;;9.58;98.38;101813.69;2566479;30;138116;-38
2021/09/03 03:36:50;;;;;;;8.85;5.13;;;11.10;99.90;;;9.53;98.03;101814.22;2569314;30;138165;-39
2021/09/03 03:39:17;;;;;;;8.25;5.15;;;11.10;99.90;;;9.49;97.82;101812.91;2569398;30;139479;-39
2021/09/03 03:41:45;;;;;;;8.18;5.28;;;11.10;99.90;;;9.45;98.05;101808.84;2568757;30;138318;-39
2021/09/03 03:44:13;;;;;;;9.68;5.40;;;11.00;99.90;;;9.44;98.04;101809.88;2572781;30;138212;-39
2021/09/03 03:46:40;;;;;;;9.10;5.68;;;11.00;99.90;;;9.43;98.21;101808.19;2570526;30;138275;-39
2021/09/03 03:49:07;;;;;;;9.25;5.60;;;11.00;99.90;;;9.43;98.26;101802.75;2568721;30;136916;-40
2021/09/03 03:51:35;;;;;;;8.75;5.78;;;11.00;99.90;;;9.41;98.11;101799.34;2571006;30;137781;-40
2021/09/03 03:54:03;;;;;;;10.20;5.95;;;11.00;99.90;;;9.38;98.27;101797.81;2569667;30;139050;-39
2021/09/03 03:56:30;;;;;;;9.52;6.18;;;11.00;99.90;;;9.35;98.36;101790.03;2569964;30;138022;-39
2021/09/03 03:58:58;;;;;;;9.60;5.70;;;10.90;99.90;;;9.31;98.53;101791.41;2567532;30;138756;-39
2021/09/03 04:01:25;;;;;;;9.90;6.15;;;10.90;99.90;;;9.26;98.38;101791.94;2570565;30;137568;-39
2021/09/03 04:03:53;;;;;;;9.32;5.43;;;10.80;99.90;;;9.24;98.38;101785.84;2568947;30;138275;-39
2021/09/03 04:06:21;;;;;;;10.73;5.53;;;10.80;99.90;;;9.24;98.54;101793.16;2567423;30;137408;-39
2021/09/03 04:08:49;;;;;;;11.05;5.93;;;10.80;99.90;;;9.10;98.40;101770.28;2569035;30;138388;-39
2021/09/03 04:11:16;;;;;;;9.73;5.68;;;10.80;99.90;;;9.16;98.42;101792.19;2566008;30;137675;-39
2021/09/03 04:13:44;;;;;;;9.80;6.03;;;10.70;99.90;;;9.10;98.48;101782.00;2570044;30;138115;-39
2021/09/03 04:16:11;;;;;;;10.10;5.57;;;10.70;99.90;;;9.11;98.46;101788.31;2567930;30;136800;-39
2021/09/03 04:18:40;;;;;;;9.90;6.50;;;10.70;99.90;;;9.09;98.60;101788.47;2568238;30;138462;-39
2021/09/03 04:21:07;;;;;;;10.38;5.95;;;10.70;99.90;;;9.06;98.58;101794.28;2568815;30;138086;-39
2021/09/03 04:23:35;;;;;;;11.60;6.18;;;10.60;99.90;;;9.05;98.62;101788.00;2570189;30;138279;-39
2021/09/03 04:26:02;;;;;;;11.00;6.15;;;10.60;99.90;;;9.03;98.68;101787.34;2567661;30;137190;-40
2021/09/03 04:28:30;;;;;;;9.68;5.57;;;10.60;99.90;;;9.00;98.67;101784.94;2569077;30;138430;-39
2021/09/03 04:30:59;;;;;;;12.35;6.10;;;10.60;99.90;;;8.97;98.74;101785.31;2567461;30;138615;-39
2021/09/03 04:33:26;;;;;;;10.90;6.03;;;10.50;99.90;;;8.95;98.92;101789.25;2569504;30;137176;-39
2021/09/03 04:35:54;;;;;;;11.73;6.55;;;10.50;99.90;;;8.94;98.63;101782.94;2567365;30;137775;-39
2021/09/03 04:38:22;;;;;;;10.65;6.45;;;10.50;99.90;;;8.93;98.74;101778.53;2570270;30;138210;-39
2021/09/03 04:40:49;;;;;;;;;;;10.50;99.90;;;8.91;98.91;101786.88;2570273;30;138089;-39
2021/09/03 04:43:17;;;;;;;11.35;5.45;;;10.50;99.90;;;8.91;98.84;101786.88;2570937;30;137289;-39
2021/09/03 04:45:44;;;;;;;8.95;5.82;;;10.50;99.90;;;8.91;98.95;101789.63;2567975;30;136781;-39
2021/09/03 04:48:13;;;;;;;11.23;6.68;;;10.50;99.90;;;8.94;99.15;101785.66;2569227;30;137867;-39
2021/09/03 04:50:42;;;;;;;11.90;6.60;;;10.50;99.90;;;8.95;99.50;101784.63;2570047;30;136999;-39
2021/09/03 04:53:10;;;;;;;11.52;6.82;;;10.50;99.90;;;8.96;99.55;101789.06;2568181;30;137274;-39
2021/09/03 04:55:37;;;;;;;10.88;6.40;;;10.50;99.90;;;8.95;99.52;101791.97;2570053;30;137376;-39
2021/09/03 04:58:05;;;;;;;8.82;6.43;;;10.50;99.90;;;8.93;99.44;101783.97;2568558;30;137889;-39
2021/09/03 05:00:32;;;;;;;12.75;6.55;;;10.50;99.90;;;8.95;99.37;101783.81;2572160;30;137436;-39
2021/09/03 05:03:00;;;;;;;10.70;6.70;;;10.50;99.90;;;8.86;99.55;101764.78;2566330;30;137823;-39
2021/09/03 05:05:28;;;;;;;11.40;6.72;;;10.50;99.90;;;8.94;99.51;101780.22;2569082;30;138620;-39
2021/09/03 05:07:56;;;;;;;12.40;6.57;;;10.50;99.90;;;8.96;99.42;101780.91;2571071;30;139114;-39
2021/09/03 05:10:23;;;;;;;12.25;6.47;;;10.50;99.90;;;8.96;99.50;101785.50;2566832;30;137759;-39
2021/09/03 05:12:51;;;;;;;13.85;7.82;;;10.50;99.90;;;8.97;99.48;101785.31;2568764;30;137812;-39
2021/09/03 05:15:31;;;;;;;10.70;6.13;;;10.50;99.90;;;8.99;99.65;101785.16;2569431;30;136696;-39
2021/09/03 05:17:59;;;;;;;11.82;7.30;;;10.50;99.90;;;9.02;100.00;101777.47;2570756;30;137656;-40
2021/09/03 05:20:27;;;;;;;11.95;7.15;;;10.60;99.90;;;9.06;100.00;101780.66;2569439;30;136703;-39
2021/09/03 05:22:54;;;;;;;;;;;10.60;99.90;;;9.07;100.00;101782.38;2569139;30;137761;-39
2021/09/03 05:25:22;;;;;;;14.63;7.82;;;10.60;99.90;;;9.11;100.00;101782.88;2568606;30;137347;-39
2021/09/03 05:27:50;;;;;;;;;;;10.60;99.90;;;9.13;100.00;101789.81;2569846;30;138746;-39
2021/09/03 05:30:18;;;;;;;11.38;6.90;;;10.70;99.90;;;9.18;100.00;101784.69;2569510;30;137245;-39
2021/09/03 05:32:46;;;;;;;12.07;6.93;;;10.70;99.90;;;9.23;100.00;101784.13;2569310;30;138961;-39
2021/09/03 05:35:14;;;;;;;12.80;7.30;;;10.70;99.90;;;9.29;100.00;101790.75;2570096;30;137165;-39
2021/09/03 05:37:42;;;;;;;11.43;7.45;;;10.80;99.90;;;9.35;100.00;101790.88;2568240;30;139000;-39
2021/09/03 05:40:10;;;;;;;14.50;7.60;;;10.80;99.90;;;9.40;100.00;101790.31;2570348;30;136875;-39
2021/09/03 05:42:38;;;;;;;12.02;6.53;;;10.90;99.90;;;9.48;100.00;101797.59;2568357;30;137119;-39
2021/09/03 05:45:06;;;;;;;13.23;7.00;;;10.90;99.90;;;9.54;100.00;101798.75;2568675;30;136702;-39
2021/09/03 05:47:34;;;;;;;12.07;7.80;;;11.00;99.90;;;9.59;100.00;101797.19;2569916;30;136815;-38
2021/09/03 05:50:01;;;;;;;11.52;7.20;;;11.00;99.90;;;9.66;100.00;101791.81;2568366;30;137234;-39
2021/09/03 05:52:29;;;;;;;15.48;7.15;;;11.10;99.90;;;9.73;100.00;101791.94;2568581;30;137226;-39
2021/09/03 05:54:57;;;;;;;12.65;7.97;;;11.20;99.90;;;9.81;100.00;101794.59;2567835;30;137379;-39
2021/09/03 05:57:24;;;;;;;12.73;8.13;;;11.20;99.90;;;9.91;100.00;101797.06;2570554;30;137603;-39
2021/09/03 05:59:52;;;;;;;15.77;7.80;;;11.30;99.90;;;10.00;100.00;101792.41;2566451;30;138018;-39
2021/09/03 06:02:20;;;;;;;11.85;7.70;;;11.40;99.90;;;10.07;100.00;101790.63;2569613;30;137451;-39
2021/09/03 06:04:47;;;;;;;14.73;8.32;;;11.50;99.90;;;10.19;100.00;101786.41;2568434;30;137101;-40
2021/09/03 06:07:16;;;;;;;15.25;7.82;;;11.60;99.90;;;10.30;100.00;101793.28;2568953;30;139033;-39
2021/09/03 06:09:44;;;;;;;16.85;8.93;;;11.60;99.90;;;10.41;100.00;101792.00;2569078;30;137647;-39
2021/09/03 06:12:11;;;;;;;12.85;7.70;;;11.80;99.90;;;10.50;100.00;101788.16;2567594;30;137415;-39
2021/09/03 06:14:39;;;;;;;15.05;8.35;;;11.80;99.90;;;10.70;100.00;101792.19;2568943;30;138531;-39
2021/09/03 06:17:07;;;;;;;16.70;9.63;;;12.00;99.90;;;10.87;100.00;101792.81;2569280;30;138181;-39
2021/09/03 06:19:34;;;;;;;17.15;10.20;;;12.10;99.90;;;11.04;100.00;101794.28;2569484;30;138160;-39
2021/09/03 06:22:02;;;;;;;17.88;10.52;;;12.30;99.90;;;11.20;100.00;101786.91;2570690;30;137177;-39
2021/09/03 06:24:30;;;;;;;;;;;12.40;99.90;;;11.37;100.00;101782.88;2566458;30;137975;-39
2021/09/03 06:27:04;;;;;;;18.27;11.02;;;12.60;99.90;;;11.52;100.00;101785.53;2568968;30;137293;-39
2021/09/03 06:29:37;;;;;;;16.70;10.57;;;12.70;99.90;;;11.66;100.00;101781.06;2568258;30;136791;-39
2021/09/03 06:32:20;;;;;;;17.77;10.55;;;12.90;99.90;;;11.81;100.00;101788.34;2569500;30;138243;-40
2021/09/03 06:34:53;;;;;;;18.20;10.88;;;13.00;99.90;;;11.91;100.00;101783.38;2568665;30;136806;-38
2021/09/03 06:37:22;;;;;;;20.30;11.80;;;13.10;99.90;;;12.03;100.00;101780.13;2568916;30;138167;-39
2021/09/03 06:39:50;;;;;;;18.63;11.35;;;13.20;99.90;;;12.17;100.00;101787.38;2577827;30;138240;-41
2021/09/03 06:42:20;;;;;;;18.35;11.98;;;13.30;99.90;;;12.33;100.00;101791.72;2568247;30;137677;-41
2021/09/03 06:44:47;;;;;;;24.85;13.45;;;13.50;99.90;;;12.49;100.00;101790.56;2567468;30;137709;-41
2021/09/03 06:47:16;;;;;;;21.00;12.98;;;13.60;99.90;;;12.66;100.00;101791.06;2568302;30;138188;-41
2021/09/03 06:49:45;;;;;;;22.63;13.82;;;13.70;99.90;;;12.85;100.00;101790.50;2567952;30;136788;-41
2021/09/03 06:52:14;;;;;;;24.02;14.05;;;13.90;99.90;;;13.06;100.00;101784.91;2567994;30;137550;-41
2021/09/03 06:54:43;;;;;;;23.13;13.48;;;14.10;99.90;;;13.27;100.00;101788.56;2567431;30;138463;-42
2021/09/03 06:57:10;;;;;;;23.20;14.05;;;14.30;99.90;;;13.48;100.00;101794.91;2568652;30;138074;-42
2021/09/03 06:59:38;;;;;;;24.45;14.55;;;14.40;99.90;;;13.66;100.00;101788.84;2566099;30;138612;-41
2021/09/03 07:02:07;;;;;;;;;;;14.60;99.90;;;13.86;100.00;101794.34;2566911;30;138344;-41
2021/09/03 07:04:34;;;;;;;22.25;13.18;;;14.80;99.90;;;14.06;99.33;101788.84;2567179;30;137973;-41
2021/09/03 07:07:02;;;;;;;23.10;14.27;;;15.00;99.90;;;14.26;98.20;101789.88;2567510;30;138458;-41
2021/09/03 07:09:50;;;;;;;21.42;13.75;;;15.10;99.90;;;14.47;96.80;101795.09;2568154;30;136781;-41
2021/09/03 07:12:18;;;;;;;23.38;13.15;;;15.30;99.90;;;14.66;95.06;101781.53;2568088;30;137601;-41
2021/09/03 07:14:45;;;;;;;21.60;13.60;;;15.50;99.90;;;14.84;92.99;101780.00;2565487;30;138011;-41
2021/09/03 07:17:13;;;;;;;21.83;12.35;;;15.70;99.90;;;15.03;92.20;101790.06;2568286;30;138997;-42
2021/09/03 07:19:41;;;;;;;20.55;12.07;;;15.90;99.90;;;15.19;91.58;101794.22;2565330;30;138539;-41
2021/09/03 07:22:08;;;;;;;17.08;11.45;;;16.10;99.90;;;15.35;90.42;101792.84;2568318;30;138257;-41
2021/09/03 07:24:36;;;;;;;18.98;12.43;;;16.20;99.90;;;15.50;90.17;101792.53;2568090;30;138670;-41
2021/09/03 07:27:04;;;;;;;;;;;16.30;99.90;;;15.63;89.56;101780.59;2566916;30;139414;-41
2021/09/03 07:29:32;;;;;;;18.52;11.60;;;16.50;99.90;;;15.75;88.54;101782.63;2567394;30;137332;-41
2021/09/03 07:31:59;;;;;;;18.75;11.63;;;16.60;99.90;;;15.91;87.87;101782.13;2567868;30;138310;-44
2021/09/03 07:34:27;;;;;;;18.02;11.60;;;16.70;99.90;;;16.04;87.64;101781.13;2567189;30;136964;-41
2021/09/03 07:36:54;;;;;;;19.52;11.90;;;16.80;99.90;;;16.20;86.86;101787.13;2566540;30;139189;-41
2021/09/03 07:39:22;;;;;;;17.95;11.35;;;17.00;99.90;;;16.32;84.97;101779.81;2567257;30;139439;-42
2021/09/03 07:41:52;;;;;;;20.40;12.02;;;17.10;99.90;;;16.46;84.97;101777.78;2567015;30;138354;-41
2021/09/03 07:44:20;;;;;;;19.40;11.35;;;17.30;99.90;;;16.59;83.42;101775.91;2565655;30;138533;-42
2021/09/03 07:46:47;;;;;;;15.40;10.52;;;17.40;99.90;;;16.73;83.20;101776.59;2567926;30;138265;-41
2021/09/03 07:49:15;;;;;;;;;;;17.50;99.90;;;16.85;83.40;101779.41;2566638;30;136862;-42
2021/09/03 07:51:43;;;;;;;14.48;9.77;;;17.60;99.90;;;16.97;82.69;101777.56;2567867;30;137200;-42
2021/09/03 07:54:14;;;;;;;17.20;10.27;;;17.80;99.90;;;17.13;82.97;101775.25;2567800;30;138229;-42
2021/09/03 07:56:42;;;;;;;;;;;17.90;99.90;;;17.26;82.06;101775.09;2569182;30;139531;-42
2021/09/03 07:59:09;;;;;;;14.95;10.10;;;18.00;99.90;;;17.31;79.64;101775.22;2567571;30;137231;-43
2021/09/03 08:01:37;;;;;;;15.13;9.52;;;18.10;99.90;;;17.47;81.17;101770.09;2568205;30;138862;-43
2021/09/03 08:04:05;;;;;;;15.45;10.18;;;18.20;99.90;;;17.59;80.16;101775.63;2567284;30;137191;-41
2021/09/03 08:06:32;;;;;;;16.02;9.93;;;18.30;99.90;;;17.65;79.10;101775.53;2570387;30;138431;-41
2021/09/03 08:09:01;;;;;;;13.38;8.82;;;18.50;99.90;;;17.67;75.48;101775.31;2565648;30;137283;-41
2021/09/03 08:11:29;;;;;;;14.75;8.88;;;18.50;99.90;;;17.78;76.33;101771.72;2568563;30;138068;-46
2021/09/03 08:13:57;;;;;;;13.38;8.85;;;18.60;99.90;;;17.89;77.28;101771.97;2568259;30;138276;-41
2021/09/03 08:16:24;;;;;;;13.77;8.68;;;18.70;99.90;;;17.89;75.24;101774.72;2567954;30;138899;-41
2021/09/03 08:18:52;;;;;;;14.15;9.13;;;18.80;99.90;;;18.01;77.09;101772.84;2568409;30;136987;-41
2021/09/03 08:21:20;;;;;;;14.52;8.60;;;18.80;99.90;;;18.09;76.58;101778.00;2568250;30;139038;-44
2021/09/03 08:23:48;;;;;;;11.93;8.55;;;18.90;99.90;;;18.23;75.42;101778.59;2568412;30;137281;-45
2021/09/03 08:26:15;;;;;;;15.55;9.57;;;19.00;99.90;;;18.22;76.31;101765.88;2568914;30;138455;-41
2021/09/03 08:28:43;;;;;;;14.05;9.63;;;19.10;99.90;;;18.32;75.43;101776.31;2568083;30;137564;-42
2021/09/03 08:31:10;;;;;;;12.55;8.48;;;19.10;99.90;;;18.47;74.88;101775.81;2567141;30;137612;-42
2021/09/03 08:33:38;;;;;;;14.57;9.15;;;19.20;99.90;;;18.58;73.95;101767.75;2569002;30;136892;-43
2021/09/03 08:36:06;;;;;;;12.95;9.15;;;19.40;99.90;;;18.66;73.27;101768.19;2568142;30;137327;-42
2021/09/03 08:38:33;;;;;;;13.13;8.30;;;19.40;99.90;;;18.87;75.30;101776.09;2567265;30;136907;-41
2021/09/03 08:41:01;;;;;;;;;;;19.60;99.90;;;18.94;74.77;101776.78;2568453;30;137380;-42
2021/09/03 08:43:29;;;;;;;12.38;7.88;;;19.70;99.90;;;19.04;74.10;101777.00;2568438;30;137314;-44
2021/09/03 08:45:57;;;;;;;14.05;7.85;;;19.80;99.90;;;19.18;74.10;101776.72;2566517;30;138146;-41
2021/09/03 08:48:26;;;;;;;12.00;7.88;;;19.90;99.90;;;19.29;72.34;101781.34;2568030;30;139063;-43
2021/09/03 08:50:56;;;;;;;14.32;8.20;;;20.00;99.90;;;19.45;72.85;101782.47;2568702;30;137671;-41
2021/09/03 08:53:24;;;;;;;13.80;9.00;;;20.10;99.90;;;19.49;70.73;101780.03;2568695;30;137451;-42
2021/09/03 08:55:53;;;;;;;;;;;20.20;99.90;;;19.59;72.73;101779.38;2568038;30;138438;-41
2021/09/03 08:58:21;;;;;;;15.90;8.07;;;20.30;99.90;;;19.72;70.52;101775.44;2566912;30;137232;-41
2021/09/03 09:01:11;;;;;;;15.15;8.18;;;20.40;99.90;;;19.87;71.73;101770.16;2567083;30;138404;-37
2021/09/03 09:03:45;;;;;;;12.63;7.65;;;20.60;99.90;;;20.01;72.08;101778.16;2569005;30;136673;-42
2021/09/03 09:06:22;;;;;;;12.32;7.47;;;20.70;99.90;;;20.19;71.18;101788.13;2568265;30;139116;-42
2021/09/03 09:09:08;;;;;;;12.05;8.02;;;20.80;99.90;;;20.30;70.78;101776.09;2567699;30;137407;-42
2021/09/03 09:11:37;;;;;;;12.85;7.60;;;20.90;99.90;;;20.35;68.90;101778.09;2568156;30;137050;-41
2021/09/03 09:14:12;;;;;;;12.68;7.93;;;21.00;99.90;;;20.49;68.82;101776.63;2568796;30;138410;-39
2021/09/03 09:16:40;;;;;;;14.07;8.27;;;21.10;99.90;;;20.64;69.20;101766.84;2568481;30;138999;-41
2021/09/03 09:19:08;;;;;;;14.27;8.40;;;21.30;99.90;;;20.59;66.35;101781.47;2569101;30;137453;-42
2021/09/03 09:21:38;;;;;;;11.48;7.50;;;21.40;99.90;;;20.69;67.57;101769.69;2566577;30;138173;-42
2021/09/03 09:24:10;;;;;;;11.38;7.05;;;21.40;99.90;;;20.84;68.55;101769.88;2568009;30;137634;-42
2021/09/03 09:26:58;;;;;;;13.23;7.95;;;21.50;99.90;;;20.99;67.29;101782.28;2566060;30;137835;-42
2021/09/03 09:29:35;;;;;;;12.90;7.90;;;21.70;99.90;;;20.97;66.90;101773.38;2568708;30;138696;-41
2021/09/03 09:32:09;;;;;;;11.73;7.32;;;21.70;99.90;;;21.04;67.60;101767.59;2568219;30;138227;-42
2021/09/03 09:34:41;;;;;;;11.05;6.93;;;21.80;99.90;;;21.19;66.88;101769.69;2568427;30;137491;-45
2021/09/03 09:37:13;;;;;;;10.60;7.35;;;21.90;99.90;;;21.34;66.78;101767.09;2568358;30;137190;-42
2021/09/03 09:39:41;;;;;;;12.02;7.50;;;22.00;99.90;;;21.27;61.71;101758.16;2566420;30;137570;-42
2021/09/03 09:42:30;;;;;;;11.40;6.68;;;22.00;99.90;;;21.24;66.88;101750.34;2568941;30;136749;-41
2021/09/03 09:45:08;;;;;;;12.23;6.65;;;22.00;99.90;;;21.12;64.48;101747.75;2567829;30;138074;-43
2021/09/03 09:47:38;;;;;;;12.18;6.40;;;22.00;99.90;;;21.22;65.15;101752.56;2567305;30;138773;-41
2021/09/03 09:50:31;;;;;;;11.13;6.68;;;22.00;99.90;;;21.35;63.50;101752.13;2566298;30;139039;-41
2021/09/03 09:53:12;;;;;;;10.45;7.10;;;22.10;99.90;;;21.45;64.65;101744.97;2566755;30;138784;-41
2021/09/03 09:55:40;;;;;;;10.25;6.30;;;22.10;99.90;;;21.51;61.12;101744.75;2565954;30;136781;-41
2021/09/03 09:58:13;;;;;;;9.63;5.57;;;22.20;99.90;;;21.65;61.04;101745.19;2567062;30;138297;-41
2021/09/03 10:00:42;;;;;;;10.98;5.93;;;22.40;99.90;;;21.73;60.02;101740.22;2567793;30;137017;-41
2021/09/03 10:03:11;;;;;;;13.07;6.13;;;22.40;99.90;;;21.89;59.41;101739.25;2568525;30;137155;-41
2021/09/03 10:05:40;;;;;;;9.30;6.18;;;22.50;99.90;;;21.91;61.02;101750.94;2568518;30;137495;-41
2021/09/03 10:08:08;;;;;;;10.13;6.25;;;22.60;99.90;;;21.99;60.50;101735.72;2568875;30;137232;-42
2021/09/03 10:10:36;;;;;;;9.27;5.38;;;22.70;99.90;;;22.02;58.77;101739.91;2568082;30;137326;-41
2021/09/03 10:13:04;;;;;;;10.32;4.88;;;22.80;99.90;;;22.15;61.12;101733.84;2568186;30;138186;-41